Time;durP1;ratioP1;P1;durP2;ratioP2;P2;SDS_P1;SDS_P2;PMS_P1;PMS_P2;Temp;Humidity;BMP_temperature;BMP_pressure;BME280_temperature;BME280_humidity;BME280_pressure;Samples;Min_cycle;Max_cycle;Signal;HPM_P1;HPM_P2
2022/02/08 00:00:41;;;;;;;2.70;1.00;;;-1.10;1.40;;;-0.80;100.00;96699.11;647583;216;31560;-78
2022/02/08 00:03:21;;;;;;;1.00;0.45;;;-1.00;1.40;;;-0.95;100.00;96701.59;646652;212;31568;-77
2022/02/08 00:06:24;;;;;;;1.50;1.40;;;-1.30;1.40;;;-0.89;100.00;96698.23;616157;226;32940;-78
2022/02/08 00:08:52;;;;;;;0.50;0.50;;;-1.30;1.40;;;-0.99;100.00;96700.06;646955;216;31526;-78
2022/02/08 00:11:33;;;;;;;0.90;0.60;;;-1.30;1.40;;;-0.93;100.00;96698.78;647201;216;31661;-77
2022/02/08 00:14:18;;;;;;;0.40;0.30;;;-1.10;1.40;;;-1.01;100.00;96704.94;619853;222;31842;-78
2022/02/08 00:17:00;;;;;;;0.50;0.50;;;-1.30;1.40;;;-1.06;100.00;96700.87;646682;216;32124;-77
2022/02/08 00:19:42;;;;;;;1.10;0.90;;;-1.50;1.40;;;-1.05;100.00;96707.46;647977;216;31659;-78
2022/02/08 00:22:27;;;;;;;0.40;0.40;;;-1.40;1.40;;;-1.05;100.00;96702.89;647539;216;31590;-77
2022/02/08 00:25:09;;;;;;;0.80;0.60;;;-1.30;1.40;;;-1.06;100.00;96701.36;647474;212;31510;-78
2022/02/08 00:27:54;;;;;;;3.00;0.60;;;-1.40;1.40;;;-1.11;100.00;96705.25;646673;212;32204;-77
2022/02/08 00:30:35;;;;;;;0.73;0.62;;;-1.40;1.40;;;-1.17;100.00;96705.11;648357;212;31494;-78
2022/02/08 00:35:51;;;;;;;1.00;0.90;;;-1.50;1.40;;;-1.29;100.00;96702.19;647316;212;31481;-77
2022/02/08 00:38:35;;;;;;;0.70;0.70;;;-1.60;1.40;;;-1.34;100.00;96704.06;647619;212;31594;-77
2022/02/08 00:41:17;;;;;;;0.95;0.85;;;-1.70;1.40;;;-1.45;100.00;96695.10;647484;216;31666;-75
2022/02/08 00:44:05;;;;;;;0.60;0.50;;;-1.80;1.40;;;-1.57;100.00;96693.09;647560;216;31631;-78
2022/02/08 00:46:49;;;;;;;0.60;0.60;;;-1.80;1.40;;;-1.61;100.00;96693.24;647381;216;31655;-77
2022/02/08 00:49:31;;;;;;;4.60;0.50;;;-1.90;1.40;;;-1.61;100.00;96699.34;647466;216;31667;-78
2022/02/08 00:52:14;;;;;;;0.43;0.40;;;-1.80;1.40;;;-1.47;100.00;96698.55;647953;212;31495;-78
2022/02/08 00:54:49;;;;;;;1.20;0.40;;;-1.60;1.40;;;-1.42;100.00;96696.45;646767;216;31559;-77
2022/02/08 00:57:32;;;;;;;0.70;0.30;;;-1.60;1.40;;;-1.22;100.00;96692.63;646683;216;31545;-77
2022/02/08 01:00:14;;;;;;;1.30;0.60;;;-1.30;1.40;;;-1.03;100.00;96692.87;644233;215;31513;-77
2022/02/08 01:05:30;;;;;;;0.60;0.60;;;-1.00;1.40;;;-0.94;100.00;96710.19;646154;216;31530;-78
2022/02/08 01:08:13;;;;;;;0.40;0.40;;;-1.00;1.40;;;-0.93;100.00;96709.26;646352;216;31528;-76
2022/02/08 01:10:56;;;;;;;1.90;0.80;;;-1.10;1.40;;;-1.04;100.00;96709.02;619970;226;31880;-77
2022/02/08 01:13:38;;;;;;;1.20;1.10;;;-1.30;1.40;;;-1.24;100.00;96711.61;647605;212;31521;-78
2022/02/08 01:16:19;;;;;;;0.70;0.40;;;-1.60;1.40;;;-1.39;100.00;96710.30;649201;212;31533;-77
2022/02/08 01:19:03;;;;;;;0.90;0.40;;;-1.90;1.40;;;-1.63;100.00;96716.11;646505;216;31508;-77
2022/02/08 01:21:46;;;;;;;0.40;0.30;;;-2.20;1.40;;;-1.79;100.00;96710.41;619088;226;32008;-78
2022/02/08 01:24:28;;;;;;;0.40;0.30;;;-2.30;1.40;;;-1.79;100.00;96712.22;647113;216;31491;-78
2022/02/08 01:27:12;;;;;;;0.90;0.52;;;-2.10;1.40;;;-1.67;100.00;96710.55;646957;212;31531;-77
2022/02/08 01:29:56;;;;;;;2.10;0.40;;;-1.90;1.40;;;-1.45;100.00;96713.89;647640;212;31491;-78
2022/02/08 01:32:50;;;;;;;1.40;0.60;;;-1.60;1.40;;;-1.23;100.00;96712.67;643166;215;31577;-78
2022/02/08 01:38:40;;;;;;;0.50;0.50;;;-1.40;1.40;;;-1.03;100.00;96703.15;647330;212;31482;-78
2022/02/08 01:41:34;;;;;;;0.50;0.40;;;-1.20;1.40;;;-0.95;100.00;96702.23;647218;212;31502;-78
2022/02/08 01:44:12;;;;;;;0.50;0.33;;;-1.20;1.40;;;-0.94;100.00;96699.71;647300;212;33189;-78
2022/02/08 01:46:59;;;;;;;1.00;0.60;;;-1.20;1.40;;;-0.76;100.00;96707.73;646990;216;31491;-77
2022/02/08 01:49:36;;;;;;;0.90;0.40;;;-1.00;1.40;;;-0.73;100.00;96695.78;647075;213;31512;-77
2022/02/08 01:52:13;;;;;;;0.60;0.60;;;-1.00;1.40;;;-0.81;100.00;96712.97;646678;216;31529;-77
2022/02/08 01:54:56;;;;;;;0.70;0.40;;;-1.00;1.40;;;-0.47;100.00;96711.93;647176;212;31529;-78
2022/02/08 01:57:38;;;;;;;7.43;0.93;;;-0.70;1.40;;;-0.41;100.00;96713.81;648611;212;31555;-78
2022/02/08 02:00:20;;;;;;;2.60;1.70;;;-0.70;1.40;;;-0.33;100.00;96713.61;619811;226;31829;-77
2022/02/08 02:03:02;;;;;;;0.43;0.37;;;-0.50;1.40;;;-0.30;100.00;96714.78;647672;212;31473;-77
2022/02/08 02:05:43;;;;;;;2.20;0.60;;;-0.50;1.40;;;-0.12;100.00;96711.96;647115;212;32105;-77
2022/02/08 02:08:26;;;;;;;3.05;0.73;;;-0.40;1.40;;;-0.06;100.00;96710.31;647033;216;31577;-78
2022/02/08 02:11:09;;;;;;;1.00;0.50;;;-0.30;1.40;;;0.01;100.00;96713.43;646589;216;31885;-78
2022/02/08 02:13:50;;;;;;;1.10;0.90;;;-0.20;1.40;;;0.09;100.00;96713.41;647387;216;31976;-78
2022/02/08 02:16:47;;;;;;;3.55;0.85;;;-0.30;1.40;;;0.06;100.00;96717.64;648433;216;31617;-78
2022/02/08 02:19:16;;;;;;;0.50;0.40;;;-0.20;1.40;;;0.09;100.00;96721.08;619395;226;31851;-78
2022/02/08 02:21:58;;;;;;;0.50;0.30;;;-0.20;1.40;;;0.25;100.00;96715.94;619608;226;31819;-77
2022/02/08 02:24:42;;;;;;;0.40;0.30;;;-0.10;1.40;;;0.21;100.00;96709.02;647772;212;32085;-77
2022/02/08 02:27:24;;;;;;;0.55;0.37;;;-0.20;1.40;;;0.28;100.00;96703.28;621151;225;31907;-78
2022/02/08 02:30:11;;;;;;;0.70;0.70;;;0.00;1.40;;;0.35;100.00;96707.00;647980;212;31529;-78
2022/02/08 02:32:53;;;;;;;0.40;0.20;;;0.00;1.40;;;0.30;100.00;96710.35;648059;212;31764;-77
2022/02/08 02:35:51;;;;;;;0.40;0.30;;;0.00;1.40;;;0.26;100.00;96716.19;620935;226;32065;-77
2022/02/08 02:38:39;;;;;;;0.60;0.40;;;0.00;1.40;;;0.41;100.00;96719.84;630520;222;42318;-77
2022/02/08 02:43:58;;;;;;;0.70;0.60;;;0.20;1.40;;;0.55;100.00;96724.91;619461;222;32038;-78
2022/02/08 02:46:40;;;;;;;2.10;1.10;;;0.20;1.40;;;0.56;100.00;96717.50;648231;216;42142;-77
2022/02/08 02:49:22;;;;;;;2.90;0.80;;;0.20;1.40;;;0.55;100.00;96720.68;647499;212;32193;-78
2022/02/08 02:52:06;;;;;;;0.40;0.23;;;0.20;1.40;;;0.59;100.00;96720.40;647866;216;31551;-77
2022/02/08 02:54:51;;;;;;;1.75;0.45;;;0.30;1.40;;;0.60;100.00;96719.91;618700;226;31886;-78
2022/02/08 02:57:41;;;;;;;2.70;1.10;;;0.30;1.40;;;0.61;100.00;96716.13;647464;216;42108;-78
2022/02/08 03:03:13;;;;;;;0.60;0.50;;;0.50;1.40;;;0.72;100.00;96713.77;619665;226;42496;-77
2022/02/08 03:19:42;;;;;;;1.50;0.60;;;0.60;1.40;;;0.87;100.00;96736.97;647137;216;31493;-78
2022/02/08 03:22:24;;;;;;;0.70;0.50;;;0.70;1.40;;;0.91;100.00;96729.16;620110;225;42507;-77
2022/02/08 03:25:06;;;;;;;0.70;0.50;;;0.60;1.40;;;0.88;100.00;96731.16;646663;212;31539;-77
2022/02/08 03:27:48;;;;;;;0.80;0.80;;;0.60;1.40;;;0.95;100.00;96742.20;620736;226;31924;-78
2022/02/08 03:30:33;;;;;;;3.92;0.73;;;0.60;1.40;;;0.88;100.00;96751.27;647482;212;32175;-76
2022/02/08 03:35:55;;;;;;;0.50;0.50;;;0.70;1.40;;;0.95;100.00;96768.11;647526;216;31532;-77
2022/02/08 03:38:44;;;;;;;0.40;0.30;;;0.70;1.40;;;0.94;100.00;96764.02;647697;216;42213;-77
2022/02/08 03:41:21;;;;;;;0.40;0.40;;;0.70;1.40;;;0.91;100.00;96765.31;646963;212;31541;-78
2022/02/08 03:46:40;;;;;;;0.40;0.30;;;0.80;1.40;;;1.03;100.00;96755.16;647612;216;31487;-78
2022/02/08 03:49:22;;;;;;;0.50;0.50;;;0.70;1.40;;;1.04;100.00;96762.52;619716;222;31853;-78
2022/02/08 03:52:06;;;;;;;0.40;0.37;;;0.70;1.40;;;1.04;100.00;96756.63;647471;216;32140;-78
2022/02/08 03:54:48;;;;;;;0.40;0.40;;;0.70;1.40;;;1.08;100.00;96754.30;619299;226;42571;-78
2022/02/08 03:57:30;;;;;;;0.70;0.50;;;0.80;1.40;;;1.05;100.00;96755.11;620466;222;31919;-78
2022/02/08 04:00:18;;;;;;;0.40;0.40;;;0.70;1.40;;;1.11;100.00;96747.90;646151;212;31588;-76
2022/02/08 04:03:03;;;;;;;1.10;0.80;;;0.80;1.40;;;1.08;100.00;96744.48;649042;212;31498;-78
2022/02/08 04:05:53;;;;;;;0.90;0.60;;;0.70;1.40;;;1.13;100.00;96746.98;647409;212;31525;-76
2022/02/08 04:08:35;;;;;;;1.10;0.40;;;0.80;1.40;;;1.26;100.00;96743.86;647220;216;31553;-78
2022/02/08 04:11:17;;;;;;;0.70;0.50;;;1.00;1.40;;;1.25;100.00;96747.26;618994;225;36830;-78
2022/02/08 04:14:16;;;;;;;0.40;0.30;;;0.90;1.40;;;1.26;100.00;96749.81;648352;216;31827;-79
2022/02/08 04:16:41;;;;;;;0.40;0.40;;;0.90;1.40;;;1.35;100.00;96748.91;621301;222;31875;-77
2022/02/08 04:19:34;;;;;;;0.40;0.40;;;0.90;1.40;;;1.21;100.00;96750.05;619834;222;32026;-77
2022/02/08 04:36:08;;;;;;;1.30;0.60;;;1.00;1.40;;;1.32;100.00;96762.91;647389;212;31459;-78
2022/02/08 04:38:51;;;;;;;0.40;0.30;;;1.00;1.40;;;1.31;100.00;96763.05;648075;216;31498;-77
2022/02/08 04:41:30;;;;;;;1.60;0.52;;;1.10;1.40;;;1.27;100.00;96770.73;648284;216;31505;-78
2022/02/08 04:47:04;;;;;;;1.30;0.60;;;1.00;1.40;;;1.30;100.00;96767.45;647774;212;32123;-77
2022/02/08 04:49:35;;;;;;;1.00;0.50;;;1.00;1.40;;;1.29;100.00;96767.42;646726;216;31502;-77
2022/02/08 04:52:19;;;;;;;0.60;0.60;;;1.00;1.40;;;1.27;100.00;96777.66;648878;212;31539;-78
2022/02/08 04:57:54;;;;;;;0.68;0.35;;;0.90;1.40;;;1.17;100.00;96784.13;648455;212;32154;-77
2022/02/08 05:00:39;;;;;;;0.50;0.30;;;0.90;1.40;;;1.21;100.00;96787.09;647618;212;31507;-78
2022/02/08 05:35:58;;;;;;;0.70;0.70;;;1.20;1.40;;;1.54;100.00;96749.05;646670;212;31466;-77
2022/02/08 05:44:06;;;;;;;1.70;1.20;;;1.20;1.40;;;1.55;100.00;96753.05;649217;216;43423;-77
2022/02/08 05:46:49;;;;;;;0.40;0.30;;;1.30;1.40;;;1.59;100.00;96749.27;647069;212;31607;-78
2022/02/08 05:49:38;;;;;;;1.20;0.50;;;1.30;1.40;;;1.60;100.00;96748.42;647133;212;31500;-78
2022/02/08 05:55:09;;;;;;;0.50;0.40;;;1.30;1.40;;;1.59;100.00;96753.50;647425;212;31517;-77
2022/02/08 05:57:54;;;;;;;0.40;0.40;;;1.30;1.40;;;1.60;100.00;96752.47;647575;212;43349;-78
2022/02/08 06:00:37;;;;;;;0.40;0.30;;;1.20;1.40;;;1.65;100.00;96758.32;646252;216;31483;-78
2022/02/08 06:03:18;;;;;;;0.40;0.30;;;1.30;1.40;;;1.66;100.00;96761.59;649509;212;31872;-78
2022/02/08 06:05:59;;;;;;;0.73;0.43;;;1.30;1.40;;;1.62;100.00;96763.45;619387;226;32199;-77
2022/02/08 06:08:47;;;;;;;0.50;0.40;;;1.30;1.40;;;1.63;100.00;96764.53;619970;226;32016;-78
2022/02/08 06:11:37;;;;;;;0.40;0.40;;;1.30;1.40;;;1.60;100.00;96768.30;647504;212;31505;-77
2022/02/08 06:14:24;;;;;;;0.40;0.40;;;1.30;1.40;;;1.66;100.00;96767.59;649020;212;31777;-77
2022/02/08 06:16:58;;;;;;;1.00;0.40;;;1.30;1.40;;;1.66;100.00;96769.29;647891;212;31547;-78
2022/02/08 06:19:40;;;;;;;0.80;0.60;;;1.30;1.40;;;1.69;100.00;96771.66;620345;222;32429;-77
2022/02/08 06:22:27;;;;;;;0.50;0.30;;;1.30;1.40;;;1.76;100.00;96766.02;648032;216;31513;-77
2022/02/08 06:25:32;;;;;;;0.40;0.30;;;1.30;1.40;;;1.68;100.00;96775.07;620962;226;32074;-76
2022/02/08 06:28:16;;;;;;;0.55;0.40;;;1.30;1.40;;;1.68;100.00;96783.54;648789;212;31533;-77
2022/02/08 06:35:52;;;;;;;0.52;0.40;;;1.40;1.40;;;1.69;100.00;96778.18;648902;216;31557;-77
2022/02/08 06:38:33;;;;;;;1.30;0.90;;;1.30;1.40;;;1.61;100.00;96792.28;647400;216;31558;-77
2022/02/08 06:41:16;;;;;;;0.70;0.70;;;1.30;1.40;;;1.69;100.00;96775.94;646133;216;31506;-77
2022/02/08 06:43:57;;;;;;;0.55;0.43;;;1.40;1.40;;;1.72;100.00;96781.33;647369;212;31495;-77
2022/02/08 06:46:39;;;;;;;1.10;0.60;;;1.40;1.40;;;1.74;100.00;96788.42;647433;212;31658;-77
2022/02/08 06:52:03;;;;;;;0.80;0.40;;;1.40;1.40;;;1.76;100.00;96786.03;648955;212;31500;-77
2022/02/08 06:57:24;;;;;;;1.50;0.50;;;1.50;1.40;;;1.81;100.00;96785.80;620040;226;31864;-82
2022/02/08 07:00:11;;;;;;;3.60;0.70;;;1.50;1.40;;;1.86;100.00;96787.14;646627;216;32063;-80
2022/02/08 07:02:54;;;;;;;0.50;0.50;;;1.50;1.40;;;1.94;100.00;96791.11;647170;216;31510;-79
2022/02/08 07:05:42;;;;;;;1.10;0.30;;;1.60;1.40;;;1.96;100.00;96785.54;646318;216;32235;-81
2022/02/08 07:08:30;;;;;;;0.40;0.40;;;1.60;1.40;;;1.97;100.00;96782.00;646497;216;31528;-76
2022/02/08 07:11:15;;;;;;;0.50;0.40;;;1.70;1.40;;;2.04;100.00;96794.16;619776;226;31947;-76
2022/02/08 07:13:58;;;;;;;0.70;0.70;;;1.70;1.40;;;1.98;100.00;96781.06;619383;226;32217;-78
2022/02/08 07:16:41;;;;;;;0.40;0.40;;;1.70;1.40;;;2.04;100.00;96783.34;619907;222;42509;-80
2022/02/08 07:19:28;;;;;;;0.70;0.40;;;1.70;1.40;;;2.11;100.00;96789.05;648426;216;31509;-79
2022/02/08 07:22:14;;;;;;;1.12;0.50;;;1.80;1.40;;;2.08;100.00;96790.82;647294;216;31505;-79
2022/02/08 07:24:57;;;;;;;0.55;0.55;;;1.80;1.40;;;2.16;100.00;96792.12;618922;222;32052;-76
2022/02/08 07:27:38;;;;;;;0.40;0.40;;;1.90;1.40;;;2.18;100.00;96791.00;646200;212;31514;-77
2022/02/08 07:30:23;;;;;;;1.10;0.65;;;1.90;1.40;;;2.24;100.00;96795.06;647018;212;31514;-77
2022/02/08 07:36:08;;;;;;;0.80;0.40;;;1.90;1.40;;;2.32;100.00;96794.42;646776;216;31641;-78
2022/02/08 07:38:50;;;;;;;1.70;0.50;;;2.00;1.40;;;2.32;100.00;96799.77;619008;226;32481;-76
2022/02/08 07:41:38;;;;;;;3.50;0.90;;;2.00;1.40;;;2.28;100.00;96792.37;646994;216;31514;-76
2022/02/08 07:44:18;;;;;;;1.00;0.30;;;1.90;1.40;;;2.37;100.00;96795.91;619291;226;31857;-76
2022/02/08 07:47:02;;;;;;;0.93;0.85;;;2.10;1.40;;;2.37;100.00;96797.45;631372;222;31883;-78
2022/02/08 07:49:51;;;;;;;1.30;0.50;;;2.10;1.40;;;2.40;100.00;96793.66;647685;216;42175;-81
2022/02/08 07:52:34;;;;;;;0.95;0.40;;;2.10;1.40;;;2.44;100.00;96789.26;646817;212;31529;-78
2022/02/08 07:55:15;;;;;;;0.90;0.52;;;2.20;1.40;;;2.49;100.00;96797.55;646416;216;31531;-77
2022/02/08 07:57:57;;;;;;;0.80;0.40;;;2.20;1.40;;;2.55;100.00;96795.38;631784;222;31746;-77
2022/02/08 08:00:40;;;;;;;2.20;0.50;;;2.30;1.40;;;2.60;100.00;96801.41;646760;212;31541;-78
2022/02/08 08:03:21;;;;;;;0.40;0.40;;;2.30;1.40;;;2.62;100.00;96799.81;619606;226;31882;-76
2022/02/08 08:06:02;;;;;;;0.50;0.40;;;2.30;1.40;;;2.65;100.00;96802.16;645513;216;32070;-77
2022/02/08 08:08:44;;;;;;;0.50;0.30;;;2.30;1.40;;;2.73;100.00;96794.63;646724;216;31948;-76
2022/02/08 08:11:27;;;;;;;0.50;0.30;;;2.30;1.40;;;2.72;100.00;96796.52;647044;212;31526;-78
2022/02/08 08:14:10;;;;;;;0.80;0.65;;;2.30;1.40;;;2.72;100.00;96792.92;647155;212;31535;-75
2022/02/08 08:16:57;;;;;;;0.62;0.57;;;2.40;1.40;;;2.71;100.00;96799.45;646136;216;31568;-76
2022/02/08 08:19:37;;;;;;;0.50;0.50;;;2.40;1.40;;;2.84;100.00;96798.45;646590;216;32068;-76
2022/02/08 08:22:18;;;;;;;0.50;0.40;;;2.50;1.40;;;2.88;100.00;96793.48;631567;222;32290;-76
2022/02/08 08:25:03;;;;;;;0.50;0.40;;;2.60;1.40;;;3.00;100.00;96790.28;618724;222;31834;-78
2022/02/08 08:27:44;;;;;;;0.40;0.30;;;2.60;1.40;;;2.97;100.00;96792.99;646656;216;33012;-78
2022/02/08 08:30:26;;;;;;;3.40;0.80;;;2.60;1.40;;;3.02;100.00;96791.15;646172;212;31532;-78
2022/02/08 08:35:51;;;;;;;2.70;0.77;;;2.80;1.40;;;3.02;100.00;96790.34;647419;216;31482;-78
2022/02/08 08:38:34;;;;;;;0.40;0.30;;;2.70;1.40;;;3.10;100.00;96785.52;647295;212;31520;-76
2022/02/08 08:41:24;;;;;;;0.93;0.50;;;2.80;1.40;;;3.13;100.00;96785.51;648103;216;31515;-82
2022/02/08 08:49:59;;;;;;;0.60;0.50;;;2.90;1.40;;;3.36;100.00;96778.59;647829;212;32046;-76
2022/02/08 08:52:42;;;;;;;0.70;0.40;;;3.00;1.40;;;3.39;99.62;96783.95;646450;216;31540;-77
2022/02/08 08:55:23;;;;;;;1.00;0.60;;;3.10;1.40;;;3.52;97.76;96788.90;619966;225;31999;-77
2022/02/08 08:58:05;;;;;;;0.55;0.35;;;3.20;1.40;;;3.69;95.64;96803.05;646374;212;31791;-77
2022/02/08 09:01:28;;;;;;;0.80;0.40;;;3.30;1.40;;;3.62;96.66;96794.19;619393;222;32224;-76
2022/02/08 09:04:10;;;;;;;0.40;0.40;;;3.30;1.40;;;3.71;93.75;96792.44;619093;222;31848;-76
2022/02/08 09:06:52;;;;;;;1.10;0.60;;;3.40;1.40;;;3.82;92.41;96781.56;615137;222;32165;-78
2022/02/08 09:09:38;;;;;;;0.57;0.40;;;3.50;1.40;;;3.92;95.23;96777.17;646650;212;31512;-78
2022/02/08 09:12:25;;;;;;;0.68;0.40;;;3.50;1.40;;;3.99;91.52;96782.72;647204;212;31495;-78
2022/02/08 09:15:22;;;;;;;0.40;0.30;;;3.70;1.40;;;4.10;89.31;96774.48;646640;216;31661;-78
2022/02/08 09:18:19;;;;;;;1.40;0.90;;;3.80;1.40;;;4.22;88.37;96770.05;647600;216;31502;-78
2022/02/08 09:23:44;;;;;;;0.40;0.40;;;4.10;1.40;;;4.67;85.23;96766.25;647661;213;42226;-76
2022/02/08 09:31:40;;;;;;;0.95;0.50;;;4.40;1.40;;;4.63;81.33;96768.11;646090;216;31493;-76
2022/02/08 09:35:52;;;;;;;0.70;0.60;;;4.40;1.40;;;4.75;80.76;96765.23;647281;216;31510;-76
2022/02/08 09:38:35;;;;;;;1.00;0.30;;;4.80;1.40;;;5.46;76.22;96762.52;646606;216;31531;-77
2022/02/08 09:41:19;;;;;;;1.17;0.43;;;5.30;1.40;;;5.51;76.35;96764.92;646778;216;32138;-78
2022/02/08 09:44:01;;;;;;;1.12;0.40;;;5.20;1.40;;;5.51;75.84;96775.89;646719;216;31534;-76
2022/02/08 09:46:42;;;;;;;0.40;0.20;;;5.30;1.40;;;5.48;72.07;96775.95;619399;226;32077;-77
2022/02/08 09:49:24;;;;;;;1.20;0.40;;;5.20;1.40;;;5.55;74.33;96779.25;647549;216;31664;-76
2022/02/08 09:52:06;;;;;;;2.00;0.50;;;5.20;1.40;;;5.56;73.66;96776.86;646738;216;31705;-76
2022/02/08 09:54:48;;;;;;;0.40;0.20;;;5.30;1.40;;;5.57;71.48;96780.53;646162;216;32180;-79
2022/02/08 09:57:30;;;;;;;1.00;0.37;;;5.20;1.40;;;5.53;72.59;96783.16;647716;212;42115;-79
2022/02/08 10:00:13;;;;;;;0.80;0.45;;;5.10;1.40;;;5.36;71.44;96786.59;647005;216;31465;-78
2022/02/08 10:03:06;;;;;;;0.52;0.52;;;4.90;1.40;;;5.07;71.35;96772.77;646375;216;31479;-76
2022/02/08 10:05:51;;;;;;;0.50;0.30;;;4.60;1.40;;;4.93;77.75;96774.14;646840;212;32107;-75
2022/02/08 10:08:35;;;;;;;0.70;0.60;;;4.60;1.40;;;5.01;76.40;96793.19;649039;212;32021;-82
2022/02/08 10:11:27;;;;;;;1.10;0.45;;;4.60;1.40;;;5.06;77.18;96784.14;646755;216;31595;-76
2022/02/08 10:14:17;;;;;;;0.40;0.20;;;4.80;1.40;;;5.48;77.19;96776.11;620199;226;31841;-78
2022/02/08 10:22:36;;;;;;;0.95;0.37;;;5.90;1.40;;;6.11;70.04;96769.67;619494;222;42470;-76
2022/02/08 10:25:41;;;;;;;1.67;0.40;;;5.80;1.40;;;5.83;68.90;96768.81;620436;222;31998;-76
2022/02/08 10:28:27;;;;;;;1.40;0.30;;;5.60;1.40;;;5.88;72.68;96763.78;646993;216;31491;-78
2022/02/08 10:31:20;;;;;;;1.80;0.40;;;5.60;1.40;;;5.88;73.29;96764.92;647048;212;44980;-76
2022/02/08 10:38:46;;;;;;;0.60;0.40;;;5.40;1.40;;;5.80;73.57;96758.63;647581;212;31469;-76
2022/02/08 10:41:27;;;;;;;1.60;0.30;;;5.40;1.40;;;5.80;74.15;96757.45;646290;212;42741;-76
2022/02/08 10:44:10;;;;;;;0.40;0.20;;;5.40;1.40;;;5.80;73.29;96759.39;645825;216;31531;-76
2022/02/08 10:47:01;;;;;;;1.20;0.50;;;5.50;1.40;;;6.09;71.32;96748.91;645946;216;42764;-76
2022/02/08 10:49:43;;;;;;;0.60;0.60;;;5.70;1.40;;;6.45;68.46;96746.90;648079;212;31617;-76
2022/02/08 10:52:26;;;;;;;0.60;0.40;;;6.10;1.40;;;6.45;69.49;96751.91;646708;212;31525;-77
2022/02/08 10:55:19;;;;;;;1.50;0.40;;;6.10;1.40;;;6.76;68.34;96749.19;646746;216;32287;-77
2022/02/08 10:57:58;;;;;;;0.50;0.30;;;6.50;1.40;;;7.15;65.07;96738.33;648104;216;31541;-78
2022/02/08 11:00:54;;;;;;;0.40;0.30;;;7.50;1.40;;;7.64;60.32;96743.46;646022;212;31514;-79
2022/02/08 11:03:43;;;;;;;1.90;0.40;;;7.20;1.40;;;7.76;59.58;96735.00;645577;216;31816;-76
2022/02/08 11:06:25;;;;;;;0.60;0.20;;;7.40;1.40;;;8.58;56.26;96732.34;644900;216;31639;-76
2022/02/08 11:09:12;;;;;;;0.60;0.30;;;8.60;1.40;;;8.33;54.53;96736.34;619378;226;31916;-77
2022/02/08 11:14:33;;;;;;;0.40;0.30;;;7.90;1.40;;;8.03;55.66;96728.39;645866;212;31496;-77
2022/02/08 11:20:21;;;;;;;2.30;0.70;;;8.10;1.40;;;8.67;53.65;96723.91;646645;212;32076;-77
2022/02/08 11:22:58;;;;;;;0.90;0.40;;;8.60;1.40;;;8.63;52.26;96707.45;645565;216;31687;-76
2022/02/08 11:25:39;;;;;;;0.50;0.30;;;7.90;1.40;;;9.45;52.22;96710.80;646260;216;31544;-76
2022/02/08 11:28:25;;;;;;;0.40;0.30;;;10.30;1.40;;;10.66;47.94;96701.19;648169;216;32018;-77
2022/02/08 11:31:12;;;;;;;0.40;0.20;;;11.40;1.40;;;10.94;46.02;96711.03;648175;212;42738;-77
2022/02/08 11:39:21;;;;;;;1.00;0.30;;;10.70;1.40;;;11.86;44.05;96685.50;649425;212;31497;-82
2022/02/08 11:44:54;;;;;;;0.90;0.30;;;11.20;1.40;;;11.41;43.89;96669.45;646670;216;31542;-77
2022/02/08 11:48:12;;;;;;;1.10;0.40;;;12.30;1.40;;;12.36;41.88;96670.84;646728;216;31492;-77
2022/02/08 11:53:49;;;;;;;0.60;0.20;;;10.70;1.40;;;10.46;43.58;96675.27;618812;226;37016;-77
2022/02/08 11:56:40;;;;;;;0.85;0.50;;;10.30;1.40;;;10.87;43.62;96671.22;646891;212;32171;-76
2022/02/08 11:59:24;;;;;;;0.43;0.32;;;11.00;1.40;;;10.88;42.42;96667.58;646319;216;36477;-78
2022/02/08 12:02:26;;;;;;;0.60;0.30;;;10.50;1.40;;;11.25;41.86;96673.90;648575;212;33300;-82
2022/02/08 12:07:58;;;;;;;0.90;0.30;;;11.00;1.40;;;11.15;41.25;96673.53;636386;216;41251;-76
2022/02/08 12:10:42;;;;;;;0.80;0.30;;;10.80;1.40;;;11.17;41.40;96663.19;621065;222;43209;-76
2022/02/08 12:13:41;;;;;;;0.40;0.30;;;11.40;1.40;;;11.49;41.42;96666.84;647094;212;42094;-77
2022/02/08 12:33:09;;;;;;;1.20;0.50;;;11.60;1.40;;;11.84;39.49;96673.67;646187;216;31471;-77
2022/02/08 12:36:09;;;;;;;0.55;0.28;;;10.90;1.40;;;11.08;41.82;96680.45;648360;216;31525;-79
2022/02/08 12:50:38;;;;;;;0.50;0.50;;;11.90;1.40;;;11.03;41.26;96657.52;646327;212;42118;-76
2022/02/08 12:56:00;;;;;;;0.60;0.30;;;9.20;1.40;;;9.86;41.80;96647.98;647313;216;34174;-76
2022/02/08 13:01:56;;;;;;;0.40;0.20;;;9.00;1.40;;;9.48;40.43;96653.92;645855;216;31470;-77
2022/02/08 14:01:54;;;;;;;0.60;0.30;;;11.20;1.40;;;11.65;40.33;96604.91;620525;222;42463;-78
2022/02/08 14:05:27;;;;;;;0.40;0.30;;;12.10;1.40;;;12.48;39.42;96604.39;619233;225;31840;-77
2022/02/08 14:07:50;;;;;;;2.10;0.30;;;12.20;1.40;;;12.40;37.76;96609.66;630884;215;31791;-79
2022/02/08 14:10:57;;;;;;;0.50;0.20;;;12.30;1.40;;;13.42;37.66;96601.31;648800;216;42108;-79
2022/02/08 14:30:44;;;;;;;0.43;0.20;;;9.60;1.40;;;10.11;39.35;96623.52;647532;216;31507;-79
2022/02/08 15:00:01;;;;;;;0.60;0.30;;;9.40;1.40;;;10.02;42.47;96600.36;620887;226;42491;-79
2022/02/08 15:07:53;;;;;;;0.70;0.30;;;8.90;1.40;;;9.16;41.86;96596.39;639597;214;31984;-75
2022/02/08 15:10:03;;;;;;;0.40;0.20;;;8.50;1.40;;;9.04;43.14;96593.41;621798;222;32537;-81
2022/02/08 15:12:55;;;;;;;0.60;0.20;;;8.40;1.40;;;8.91;43.90;96597.62;645960;216;31469;-75
2022/02/08 15:18:32;;;;;;;0.40;0.20;;;8.20;1.40;;;8.60;44.56;96602.72;646772;212;32026;-77
2022/02/08 15:21:21;;;;;;;0.50;0.20;;;8.10;1.40;;;8.69;44.11;96606.87;648956;212;31522;-80
2022/02/08 15:24:06;;;;;;;0.60;0.30;;;8.60;1.40;;;8.87;44.72;96598.31;620516;222;31816;-78
2022/02/08 15:29:32;;;;;;;0.50;0.30;;;8.10;1.40;;;8.58;45.85;96597.73;646747;212;32085;-78
2022/02/08 15:32:15;;;;;;;0.40;0.20;;;8.10;1.40;;;8.42;47.59;96598.28;621787;226;32355;-78
2022/02/08 15:35:55;;;;;;;0.47;0.20;;;8.00;1.40;;;8.46;46.39;96589.70;622376;226;31894;-78
2022/02/08 15:38:40;;;;;;;0.40;0.20;;;8.10;1.40;;;8.46;48.99;96592.78;618267;226;31835;-80
2022/02/08 15:41:20;;;;;;;0.40;0.20;;;7.90;1.40;;;8.49;49.20;96593.56;647264;212;31619;-79
2022/02/08 15:44:03;;;;;;;0.40;0.30;;;7.90;1.40;;;8.48;49.24;96596.84;647165;216;31490;-80
2022/02/08 15:46:58;;;;;;;0.40;0.30;;;7.80;1.40;;;8.57;49.27;96597.52;647626;212;31495;-78
2022/02/08 15:49:55;;;;;;;0.40;0.20;;;7.80;1.40;;;8.54;50.62;96604.17;649703;216;31530;-80
2022/02/08 15:55:28;;;;;;;0.45;0.20;;;8.60;1.40;;;8.98;48.18;96601.41;619832;222;32088;-80
2022/02/08 16:01:06;;;;;;;0.40;0.20;;;8.80;1.40;;;9.22;48.36;96601.17;618135;226;31821;-78
2022/02/08 16:12:48;;;;;;;0.50;0.20;;;7.50;1.40;;;8.51;49.91;96619.56;646943;212;31543;-76
2022/02/08 16:18:26;;;;;;;1.00;0.30;;;6.80;1.40;;;7.74;51.70;96628.41;618894;226;31816;-76
2022/02/08 16:21:26;;;;;;;0.40;0.40;;;6.70;1.40;;;7.68;52.30;96636.67;652473;212;31459;-76
2022/02/08 16:24:02;;;;;;;0.60;0.40;;;6.70;1.40;;;7.56;53.13;96630.66;645564;212;31552;-76
2022/02/08 16:26:48;;;;;;;3.60;0.50;;;6.60;1.40;;;7.58;53.35;96630.35;645942;213;31506;-75
2022/02/08 16:29:55;;;;;;;0.50;0.40;;;6.60;1.40;;;7.55;53.51;96632.16;646591;212;31482;-76
2022/02/08 16:46:08;;;;;;;0.40;0.35;;;6.50;1.40;;;7.34;54.60;96632.95;644889;216;31528;-75
2022/02/08 16:48:05;;;;;;;0.50;0.30;;;6.20;1.40;;;6.90;59.67;96640.09;648896;216;31507;-76
2022/02/08 16:56:09;;;;;;;0.40;0.20;;;5.80;1.40;;;6.58;58.55;96654.98;647938;216;31584;-76
2022/02/08 16:58:51;;;;;;;0.40;0.30;;;5.70;1.40;;;6.40;59.00;96651.91;647478;212;31624;-78
2022/02/08 17:01:30;;;;;;;1.30;0.40;;;5.60;1.40;;;6.30;58.96;96652.50;646240;212;31507;-76
2022/02/08 17:04:11;;;;;;;0.70;0.40;;;5.50;1.40;;;6.14;59.45;96654.03;646847;212;32110;-76
2022/02/08 17:06:52;;;;;;;0.50;0.50;;;5.40;1.40;;;6.04;60.38;96659.41;615431;226;32398;-76
2022/02/08 17:09:51;;;;;;;1.00;0.50;;;5.30;1.40;;;5.94;61.48;96660.14;642850;216;32852;-81
2022/02/08 17:12:40;;;;;;;0.47;0.30;;;5.20;1.40;;;5.81;62.56;96659.15;617280;222;31865;-78
2022/02/08 17:15:40;;;;;;;0.75;0.40;;;5.10;1.40;;;5.64;64.76;96662.44;646718;212;31845;-76
2022/02/08 17:47:31;;;;;;;0.62;0.30;;;4.50;1.40;;;5.12;72.46;96665.19;647485;216;41790;-77
2022/02/08 17:50:02;;;;;;;0.50;0.40;;;4.50;1.40;;;5.17;72.00;96665.78;620248;222;42887;-77
2022/02/08 17:52:43;;;;;;;1.00;0.40;;;4.50;1.40;;;5.06;72.91;96672.06;621932;226;31838;-78